Time;durP1;ratioP1;P1;durP2;ratioP2;P2;SDS_P1;SDS_P2;PMS_P1;PMS_P2;Temp;Humidity;BMP_temperature;BMP_pressure;BME280_temperature;BME280_humidity;BME280_pressure;Samples;Min_cycle;Max_cycle;Signal;HPM_P1;HPM_P2
2022/03/05 00:00:08;;;;;;;4.22;2.80;;;;;;;22.77;nan;98936.69;5109784;28;20040;-61
2022/03/05 00:02:34;;;;;;;3.75;2.92;;;;;;;22.70;nan;98942.25;5109628;28;20084;-57
2022/03/05 00:05:00;;;;;;;4.30;3.25;;;;;;;22.63;nan;98933.91;5110094;28;20055;-58
2022/03/05 00:07:25;;;;;;;4.68;3.35;;;;;;;22.60;nan;98936.69;5109830;28;20044;-57
2022/03/05 00:09:50;;;;;;;4.80;3.17;;;;;;;22.59;nan;98949.03;5109746;28;20040;-57
2022/03/05 00:12:16;;;;;;;3.83;2.92;;;;;;;22.56;nan;98945.03;5109822;28;20077;-57
2022/03/05 00:14:42;;;;;;;4.00;2.97;;;;;;;22.54;nan;98950.22;5109464;28;20512;-57
2022/03/05 00:17:07;;;;;;;4.30;3.13;;;;;;;22.50;nan;98947.47;5109307;28;20429;-57
2022/03/05 00:19:33;;;;;;;3.60;2.75;;;;;;;22.49;nan;98950.63;5109370;28;20044;-57
2022/03/05 00:22:01;;;;;;;4.68;3.13;;;;;;;22.45;nan;98956.22;5109565;28;20035;-57
2022/03/05 00:24:27;;;;;;;4.13;3.20;;;;;;;22.45;nan;98953.41;5109740;28;20135;-57
2022/03/05 00:26:52;;;;;;;4.32;2.97;;;;;;;22.43;nan;98958.59;5109485;28;20054;-57
2022/03/05 00:29:18;;;;;;;4.20;3.15;;;;;;;22.42;nan;98967.34;5109524;28;20040;-57
2022/03/05 00:31:43;;;;;;;3.60;2.65;;;;;;;22.40;nan;98962.16;5109603;28;20499;-57
2022/03/05 00:34:09;;;;;;;4.35;3.17;;;;;;;22.39;nan;98954.22;5109255;28;20052;-59
2022/03/05 00:36:35;;;;;;;4.78;3.35;;;;;;;22.40;nan;98969.72;5109341;28;20480;-57
2022/03/05 00:39:01;;;;;;;4.50;2.90;;;;;;;22.38;nan;98970.13;5109145;28;20044;-57
2022/03/05 00:41:26;;;;;;;4.55;3.33;;;;;;;22.39;nan;98976.50;5109429;28;20088;-57
2022/03/05 00:43:52;;;;;;;4.55;3.33;;;;;;;22.36;nan;98975.31;5109399;28;20385;-57
2022/03/05 00:46:17;;;;;;;4.47;3.38;;;;;;;22.36;nan;98968.91;5109238;28;20423;-57
2022/03/05 00:48:42;;;;;;;4.55;3.30;;;;;;;22.36;nan;98975.31;5107401;28;20043;-57
2022/03/05 00:51:08;;;;;;;4.45;3.13;;;;;;;22.35;nan;98976.47;5109131;28;20058;-57
2022/03/05 00:53:33;;;;;;;5.22;3.60;;;;;;;22.34;nan;98972.09;5109781;28;20126;-57
2022/03/05 00:55:59;;;;;;;4.53;3.45;;;;;;;22.34;nan;98982.44;5112633;28;20043;-57
2022/03/05 00:58:24;;;;;;;3.95;2.90;;;;;;;22.28;nan;98970.91;5112379;28;20126;-57
2022/03/05 01:00:52;;;;;;;4.05;3.15;;;;;;;22.32;nan;98980.06;5112489;28;20035;-57
2022/03/05 01:03:18;;;;;;;3.85;2.95;;;;;;;22.29;nan;98980.03;5112738;28;20066;-57
2022/03/05 01:05:43;;;;;;;3.95;3.17;;;;;;;22.29;nan;98986.44;5112710;28;20399;-57
2022/03/05 01:08:09;;;;;;;4.32;3.20;;;;;;;22.30;nan;98985.25;5112412;28;20067;-57
2022/03/05 01:10:35;;;;;;;5.00;3.45;;;;;;;22.28;nan;98987.59;5112579;28;20419;-57
2022/03/05 01:13:00;;;;;;;4.43;3.03;;;;;;;22.24;nan;98976.47;5112519;28;20496;-57
2022/03/05 01:15:26;;;;;;;4.30;3.00;;;;;;;22.28;nan;98984.81;5112143;28;20048;-57
2022/03/05 01:17:51;;;;;;;3.95;3.03;;;;;;;22.27;nan;98982.44;5112309;28;20408;-57
2022/03/05 01:20:16;;;;;;;4.25;3.10;;;;;;;22.27;nan;98982.44;5112190;28;20040;-57
2022/03/05 01:22:42;;;;;;;4.32;3.05;;;;;;;22.27;nan;98985.22;5112236;28;20035;-57
2022/03/05 01:25:08;;;;;;;3.90;3.20;;;;;;;22.24;nan;98984.03;5112246;28;20039;-57
2022/03/05 01:27:33;;;;;;;3.95;2.90;;;;;;;22.25;nan;98986.41;5112141;28;20043;-57
2022/03/05 01:29:58;;;;;;;4.35;3.15;;;;;;;22.62;nan;98979.69;5112077;28;20047;-57
2022/03/05 01:32:24;;;;;;;5.15;3.25;;;;;;;23.28;nan;98990.44;5111849;28;20061;-57
2022/03/05 01:34:49;;;;;;;4.35;3.15;;;;;;;24.02;nan;98989.41;5111797;28;20557;-57
2022/03/05 01:37:15;;;;;;;4.15;3.00;;;;;;;24.38;nan;98975.25;5118731;28;20074;-57
2022/03/05 01:39:41;;;;;;;4.20;3.22;;;;;;;24.16;nan;98983.75;5132163;28;20095;-57
2022/03/05 01:42:07;;;;;;;4.32;3.20;;;;;;;23.82;nan;98980.72;5132487;28;20054;-57
2022/03/05 01:44:33;;;;;;;4.00;2.90;;;;;;;23.52;nan;98977.63;5132320;28;20050;-57
2022/03/05 01:47:01;;;;;;;3.85;3.05;;;;;;;23.29;nan;98978.09;5132119;28;20419;-57
2022/03/05 01:49:26;;;;;;;4.13;3.20;;;;;;;23.09;nan;98972.16;5132192;28;20039;-57
2022/03/05 01:51:54;;;;;;;3.85;3.00;;;;;;;22.95;nan;98981.31;5132386;28;20368;-57
2022/03/05 01:54:20;;;;;;;4.57;3.35;;;;;;;22.82;nan;98980.09;5132139;28;20047;-57
2022/03/05 01:56:45;;;;;;;4.50;3.05;;;;;;;22.71;nan;98979.28;5131970;28;20110;-57
2022/03/05 01:59:11;;;;;;;3.92;2.80;;;;;;;22.67;nan;98979.31;5132177;28;20566;-57
2022/03/05 02:01:37;;;;;;;4.20;3.20;;;;;;;22.56;nan;98975.72;5131988;28;20054;-57
2022/03/05 02:04:02;;;;;;;3.78;2.97;;;;;;;22.56;nan;98986.06;5132055;28;20454;-57
2022/03/05 02:06:29;;;;;;;4.55;3.25;;;;;;;22.51;nan;98990.84;5130963;27;20051;-57
2022/03/05 02:08:57;;;;;;;4.20;2.80;;;;;;;22.48;nan;98982.47;5132028;28;20043;-57
2022/03/05 02:11:24;;;;;;;3.70;2.65;;;;;;;22.45;nan;98984.06;5132068;28;20130;-57
2022/03/05 02:13:49;;;;;;;4.07;2.67;;;;;;;22.41;nan;98983.25;5131939;28;20418;-57
2022/03/05 02:16:15;;;;;;;3.83;2.67;;;;;;;22.39;nan;98980.09;5131932;28;20046;-57
2022/03/05 02:18:48;;;;;;;4.00;2.90;;;;;;;22.37;nan;98978.88;5131801;28;20100;-57
2022/03/05 02:21:13;;;;;;;;;;;;;;;22.39;nan;98979.28;5132483;28;20041;-57
2022/03/05 02:23:39;;;;;;;4.63;2.80;;;;;;;22.35;nan;98984.84;5131879;28;19915;-57
2022/03/05 02:26:04;;;;;;;3.92;3.13;;;;;;;22.33;nan;98992.81;5131318;28;20051;-57
2022/03/05 02:28:31;;;;;;;3.78;2.67;;;;;;;22.29;nan;98983.66;5131812;28;20483;-57
2022/03/05 02:30:57;;;;;;;3.72;2.83;;;;;;;22.29;nan;98980.88;5131556;28;20040;-57
2022/03/05 02:33:23;;;;;;;4.40;2.70;;;;;;;22.29;nan;98980.88;5131536;28;20035;-57
2022/03/05 02:35:49;;;;;;;3.88;2.80;;;;;;;22.28;nan;98990.41;5131657;28;20569;-57
2022/03/05 02:38:17;;;;;;;3.85;2.50;;;;;;;22.27;nan;98991.59;5131394;28;20131;-57
2022/03/05 02:40:43;;;;;;;3.85;2.88;;;;;;;22.37;nan;98990.03;5131372;28;20385;-57
2022/03/05 02:43:09;;;;;;;3.83;2.83;;;;;;;22.80;nan;98990.88;5131550;28;20067;-57
2022/03/05 02:45:36;;;;;;;3.83;2.78;;;;;;;23.35;nan;98982.84;5131003;28;20534;-57
2022/03/05 02:48:04;;;;;;;3.65;2.45;;;;;;;24.03;nan;98985.41;5131373;28;20050;-57
2022/03/05 02:50:30;;;;;;;3.65;2.78;;;;;;;24.56;nan;98980.72;5130880;28;20047;-56
2022/03/05 02:52:56;;;;;;;3.38;2.45;;;;;;;24.25;nan;98977.69;5131673;28;20062;-57
2022/03/05 02:55:21;;;;;;;3.80;2.80;;;;;;;23.95;nan;98983.88;5131530;28;20035;-57
2022/03/05 02:57:47;;;;;;;3.55;2.47;;;;;;;23.64;nan;98987.56;5131282;28;20431;-57
2022/03/05 03:00:13;;;;;;;3.85;2.72;;;;;;;23.35;nan;98976.47;5131016;28;20380;-57
2022/03/05 03:02:38;;;;;;;3.40;2.53;;;;;;;23.17;nan;98978.50;5131151;28;20039;-57
2022/03/05 03:05:05;;;;;;;3.30;2.45;;;;;;;22.99;nan;98973.72;5131036;28;20556;-57
2022/03/05 03:07:30;;;;;;;4.05;2.80;;;;;;;22.86;nan;98980.13;5130691;28;20046;-57
2022/03/05 03:09:56;;;;;;;3.58;2.45;;;;;;;22.78;nan;98976.50;5131088;28;20043;-57
2022/03/05 03:12:22;;;;;;;4.10;2.83;;;;;;;22.69;nan;98978.91;5131145;28;20031;-57
2022/03/05 03:14:47;;;;;;;3.42;2.60;;;;;;;22.61;nan;98969.75;5131041;28;20057;-57
2022/03/05 03:17:13;;;;;;;4.13;2.70;;;;;;;22.58;nan;98972.53;5112061;28;20082;-57
2022/03/05 03:19:38;;;;;;;3.40;2.45;;;;;;;22.52;nan;98970.16;5130597;28;20074;-57
2022/03/05 03:22:04;;;;;;;3.50;2.50;;;;;;;22.48;nan;98972.13;5130699;28;20058;-57
2022/03/05 03:24:30;;;;;;;3.72;2.45;;;;;;;22.44;nan;98976.13;5130662;28;20047;-57
2022/03/05 03:26:55;;;;;;;3.30;2.30;;;;;;;22.41;nan;98976.88;5130794;28;20047;-57
2022/03/05 03:29:20;;;;;;;3.92;2.70;;;;;;;22.38;nan;98972.91;5130775;28;20039;-57
2022/03/05 03:31:46;;;;;;;3.38;2.40;;;;;;;22.37;nan;98965.75;5130158;28;20050;-56
2022/03/05 03:34:11;;;;;;;4.22;2.90;;;;;;;22.35;nan;98978.47;5130627;28;20042;-57
2022/03/05 03:36:37;;;;;;;3.85;2.67;;;;;;;22.32;nan;98963.34;5130570;28;20074;-57
2022/03/05 03:39:03;;;;;;;3.58;2.42;;;;;;;22.29;nan;98961.38;5130387;28;20047;-57
2022/03/05 03:41:28;;;;;;;4.18;2.70;;;;;;;22.30;nan;98965.75;5130380;28;20043;-57
2022/03/05 03:43:54;;;;;;;3.40;2.47;;;;;;;22.30;nan;98973.31;5130560;28;20388;-57
2022/03/05 03:46:19;;;;;;;3.45;2.50;;;;;;;22.28;nan;98976.47;5130323;28;20043;-57
2022/03/05 03:48:44;;;;;;;4.13;2.85;;;;;;;22.25;nan;98977.28;5130330;28;20035;-57
2022/03/05 03:51:10;;;;;;;3.50;2.50;;;;;;;22.23;nan;98986.03;5130477;28;20583;-57
2022/03/05 03:53:35;;;;;;;3.20;2.40;;;;;;;22.22;nan;98978.88;5130173;28;20043;-57
2022/03/05 03:56:01;;;;;;;3.90;2.83;;;;;;;22.24;nan;98981.25;5130276;28;20039;-57
2022/03/05 03:58:26;;;;;;;3.38;2.38;;;;;;;22.23;nan;98985.22;5130497;28;20039;-57
2022/03/05 04:00:51;;;;;;;3.72;2.78;;;;;;;22.20;nan;98978.44;5130358;28;20039;-57
2022/03/05 04:03:17;;;;;;;3.80;2.53;;;;;;;22.20;nan;98983.22;5130433;28;20039;-57
2022/03/05 04:05:43;;;;;;;3.63;2.33;;;;;;;22.20;nan;98975.66;5130424;28;20096;-57
2022/03/05 04:10:52;;;;;;;3.35;2.40;;;;;;;22.19;nan;98995.56;5129580;28;20533;-57
2022/03/05 04:13:18;;;;;;;3.55;2.58;;;;;;;22.15;nan;98992.78;5129850;28;20043;-58
2022/03/05 04:15:45;;;;;;;3.83;2.60;;;;;;;22.16;nan;98986.00;5130034;28;20039;-57
2022/03/05 04:18:10;;;;;;;3.38;2.30;;;;;;;22.14;nan;99002.31;5129852;28;20047;-57
2022/03/05 04:20:36;;;;;;;3.38;2.42;;;;;;;22.15;nan;99003.91;5130271;28;20095;-57
2022/03/05 04:23:02;;;;;;;3.67;2.70;;;;;;;22.15;nan;99003.13;5130104;28;20449;-57
2022/03/05 04:25:28;;;;;;;3.47;2.40;;;;;;;22.14;nan;99001.50;5130270;28;20042;-57
2022/03/05 04:27:53;;;;;;;3.65;2.53;;;;;;;22.10;nan;98995.94;5130125;27;20047;-57
2022/03/05 04:30:18;;;;;;;3.67;2.53;;;;;;;22.07;nan;98993.91;5133265;28;20035;-57
2022/03/05 04:32:44;;;;;;;3.50;2.58;;;;;;;22.10;nan;99009.06;5133595;28;20099;-57
2022/03/05 04:35:10;;;;;;;3.30;2.33;;;;;;;22.09;nan;99011.06;5133316;28;20035;-57
2022/03/05 04:37:37;;;;;;;3.10;2.40;;;;;;;22.10;nan;99014.63;5133491;28;20485;-58
2022/03/05 04:40:04;;;;;;;3.95;2.63;;;;;;;22.06;nan;99017.38;5133442;28;20057;-57
2022/03/05 04:42:29;;;;;;;3.65;2.40;;;;;;;22.08;nan;99020.59;5115040;28;20055;-58
2022/03/05 04:44:55;;;;;;;4.20;2.80;;;;;;;22.08;nan;99014.22;5133314;28;20055;-57
2022/03/05 04:47:20;;;;;;;3.63;2.45;;;;;;;22.30;nan;99018.69;5133330;28;20043;-57
2022/03/05 04:49:46;;;;;;;3.80;2.47;;;;;;;22.85;nan;99023.91;5133318;28;20043;-57
2022/03/05 04:52:11;;;;;;;4.05;2.60;;;;;;;23.53;nan;99027.47;5133271;28;20096;-58
2022/03/05 04:54:36;;;;;;;3.15;2.33;;;;;;;24.28;nan;99029.97;5132770;28;20095;-57
2022/03/05 04:57:03;;;;;;;3.58;2.70;;;;;;;24.52;nan;99033.09;5133256;28;20399;-57
2022/03/05 04:59:29;;;;;;;3.50;2.63;;;;;;;24.17;nan;99032.84;5133275;28;20045;-57
2022/03/05 05:01:56;;;;;;;3.30;2.30;;;;;;;23.81;nan;99028.63;5133031;28;20069;-57
2022/03/05 05:04:22;;;;;;;3.53;2.70;;;;;;;23.51;nan;99038.25;5133327;28;20399;-57
2022/03/05 05:06:48;;;;;;;3.20;2.42;;;;;;;23.23;nan;99039.09;5133083;28;20521;-57
2022/03/05 05:09:13;;;;;;;5.15;2.70;;;;;;;23.02;nan;99048.25;5133021;28;20047;-57
2022/03/05 05:11:39;;;;;;;3.90;2.58;;;;;;;22.87;nan;99051.44;5133010;28;20075;-57
2022/03/05 05:14:04;;;;;;;3.55;2.70;;;;;;;22.73;nan;99055.00;5132544;28;20510;-57
2022/03/05 05:16:30;;;;;;;3.75;2.60;;;;;;;22.63;nan;99059.34;5132592;28;20046;-58
2022/03/05 05:21:39;;;;;;;4.18;3.13;;;;;;;22.49;nan;99064.88;5133056;28;20152;-57
2022/03/05 05:24:05;;;;;;;3.60;2.70;;;;;;;22.41;nan;99063.28;5132903;28;20489;-57
2022/03/05 05:26:31;;;;;;;3.65;2.63;;;;;;;22.38;nan;99069.66;5132850;28;20058;-57
2022/03/05 05:28:56;;;;;;;3.47;2.65;;;;;;;22.35;nan;99070.41;5132682;28;20043;-57
2022/03/05 05:31:21;;;;;;;3.83;2.50;;;;;;;22.32;nan;99076.78;5132711;28;20053;-57
2022/03/05 05:33:49;;;;;;;3.45;2.67;;;;;;;22.29;nan;99075.59;5132226;28;20049;-57
2022/03/05 05:36:15;;;;;;;3.60;2.88;;;;;;;22.27;nan;99085.53;5132305;28;20507;-58
2022/03/05 05:38:40;;;;;;;3.55;2.60;;;;;;;22.24;nan;99084.31;5132653;28;20116;-56
2022/03/05 05:41:07;;;;;;;2.97;2.25;;;;;;;22.22;nan;99087.50;5132387;27;20433;-57
2022/03/05 05:43:33;;;;;;;3.90;2.70;;;;;;;22.21;nan;99085.09;5132251;28;20043;-57
2022/03/05 05:45:58;;;;;;;3.90;2.83;;;;;;;22.15;nan;99081.91;5132408;28;20062;-57
2022/03/05 05:48:24;;;;;;;3.40;2.53;;;;;;;22.12;nan;99081.88;5132535;28;20047;-58
2022/03/05 05:50:49;;;;;;;3.80;2.72;;;;;;;22.15;nan;99086.69;5132373;28;20078;-57
2022/03/05 05:53:15;;;;;;;3.72;2.58;;;;;;;22.14;nan;99090.63;5131987;28;20134;-57
2022/03/05 05:55:40;;;;;;;3.72;2.53;;;;;;;22.12;nan;99095.81;5132032;28;20043;-57
2022/03/05 05:58:06;;;;;;;3.42;2.47;;;;;;;22.12;nan;99104.16;5132357;28;20054;-57
2022/03/05 06:00:31;;;;;;;3.92;2.67;;;;;;;22.11;nan;99108.16;5132147;28;20057;-58
2022/03/05 06:02:56;;;;;;;4.30;3.13;;;;;;;22.09;nan;99099.41;5132190;28;20126;-58
2022/03/05 06:05:22;;;;;;;3.33;2.53;;;;;;;22.09;nan;99102.19;5132084;28;20036;-57
2022/03/05 06:07:47;;;;;;;4.07;2.65;;;;;;;22.09;nan;99110.53;5132020;28;20050;-57
2022/03/05 06:10:13;;;;;;;4.20;2.78;;;;;;;22.08;nan;99109.75;5132283;28;20047;-57
2022/03/05 06:12:38;;;;;;;3.80;2.78;;;;;;;22.07;nan;99112.84;5132085;28;20071;-58
2022/03/05 06:15:05;;;;;;;3.55;2.75;;;;;;;22.06;nan;99109.28;5131355;28;20447;-57
2022/03/05 06:17:31;;;;;;;3.60;2.70;;;;;;;22.03;nan;99110.06;5131902;28;20042;-57
2022/03/05 06:19:57;;;;;;;3.67;2.53;;;;;;;22.05;nan;99113.25;5131768;28;20039;-57
2022/03/05 06:22:23;;;;;;;3.78;2.50;;;;;;;22.03;nan;99120.41;5131790;28;20051;-57
2022/03/05 06:24:48;;;;;;;4.32;2.95;;;;;;;22.05;nan;99120.81;5131772;28;20092;-58
2022/03/05 06:27:14;;;;;;;4.32;3.10;;;;;;;22.04;nan;99116.44;5131706;28;20407;-57
2022/03/05 06:29:40;;;;;;;3.80;2.63;;;;;;;22.02;nan;99118.81;5131594;28;20043;-57
2022/03/05 06:32:05;;;;;;;3.85;2.70;;;;;;;22.02;nan;99132.75;5131531;28;20133;-57
2022/03/05 06:34:31;;;;;;;3.30;2.45;;;;;;;21.99;nan;99123.16;5130921;28;20046;-57
2022/03/05 06:36:57;;;;;;;3.58;2.42;;;;;;;21.99;nan;99134.31;5128358;28;20043;-57
2022/03/05 06:39:23;;;;;;;3.65;2.67;;;;;;;21.97;nan;99129.13;5131548;28;20050;-57
2022/03/05 06:41:49;;;;;;;4.22;3.13;;;;;;;21.97;nan;99137.50;5131609;28;20133;-57
2022/03/05 06:44:15;;;;;;;3.63;2.72;;;;;;;21.98;nan;99141.06;5131428;28;20414;-57
2022/03/05 06:46:41;;;;;;;3.45;2.60;;;;;;;21.96;nan;99135.09;5131405;28;20499;-57
2022/03/05 06:49:06;;;;;;;4.50;3.13;;;;;;;21.97;nan;99143.06;5131268;28;20053;-57
2022/03/05 06:51:32;;;;;;;3.38;2.40;;;;;;;21.98;nan;99138.28;5112416;28;20039;-57
2022/03/05 06:53:57;;;;;;;3.72;2.72;;;;;;;21.98;nan;99138.28;5130930;28;20039;-58
2022/03/05 06:56:23;;;;;;;4.15;2.60;;;;;;;21.99;nan;99145.44;5131061;28;20168;-57
2022/03/05 06:58:48;;;;;;;3.95;2.65;;;;;;;21.97;nan;99140.28;5131519;28;20091;-57
2022/03/05 07:01:14;;;;;;;3.92;2.72;;;;;;;22.38;nan;99133.75;5131196;28;20047;-57
2022/03/05 07:03:39;;;;;;;3.40;2.58;;;;;;;23.24;nan;99137.53;5131169;28;20126;-57
2022/03/05 07:06:05;;;;;;;3.70;2.70;;;;;;;24.02;nan;99145.88;5130964;28;20142;-57
2022/03/05 07:08:30;;;;;;;3.72;2.60;;;;;;;24.06;nan;99145.84;5131124;28;20043;-58
2022/03/05 07:10:58;;;;;;;4.00;2.58;;;;;;;23.77;nan;99150.69;5130855;28;20126;-57
2022/03/05 07:13:24;;;;;;;3.53;2.58;;;;;;;23.46;nan;99152.28;5130875;28;20035;-57
2022/03/05 07:15:49;;;;;;;3.42;2.63;;;;;;;23.18;nan;99147.50;5130598;28;20070;-57
2022/03/05 07:18:15;;;;;;;3.70;2.65;;;;;;;22.97;nan;99153.84;5130951;28;20039;-57
2022/03/05 07:20:42;;;;;;;4.63;2.97;;;;;;;22.76;nan;99138.63;5131080;28;20042;-57
2022/03/05 07:23:07;;;;;;;4.00;2.75;;;;;;;22.66;nan;99149.78;5131039;28;20080;-57
2022/03/05 07:25:43;;;;;;;3.95;2.70;;;;;;;22.56;nan;99154.09;5130934;28;20043;-56
2022/03/05 07:28:10;;;;;;;4.05;2.80;;;;;;;22.47;nan;99151.69;5130968;28;20095;-57
2022/03/05 07:30:37;;;;;;;3.35;2.38;;;;;;;22.41;nan;99158.03;5130972;28;20043;-57
2022/03/05 07:33:03;;;;;;;4.18;2.85;;;;;;;22.33;nan;99157.19;5130740;28;20049;-57
2022/03/05 07:35:28;;;;;;;3.88;2.83;;;;;;;22.31;nan;99162.38;5130624;28;20402;-57
2022/03/05 07:37:54;;;;;;;4.00;2.90;;;;;;;22.27;nan;99152.38;5130588;28;20043;-57
2022/03/05 07:40:19;;;;;;;3.80;2.80;;;;;;;22.25;nan;99159.16;5130550;28;20050;-57
2022/03/05 07:42:45;;;;;;;4.20;2.92;;;;;;;22.21;nan;99157.53;5130768;28;20057;-57
2022/03/05 07:45:10;;;;;;;4.07;2.70;;;;;;;22.20;nan;99153.16;5130696;28;20043;-58
2022/03/05 07:47:36;;;;;;;4.07;2.97;;;;;;;22.17;nan;99156.72;5130554;28;20039;-57
2022/03/05 07:50:02;;;;;;;3.90;2.83;;;;;;;22.16;nan;99161.50;5130672;28;20069;-57
2022/03/05 07:52:28;;;;;;;4.50;2.83;;;;;;;22.14;nan;99158.28;5130443;28;20042;-57
2022/03/05 07:54:53;;;;;;;4.50;3.50;;;;;;;22.13;nan;99156.69;5130421;28;20464;-57
2022/03/05 07:57:18;;;;;;;4.60;3.25;;;;;;;22.10;nan;99163.06;5130212;28;20489;-57
2022/03/05 07:59:44;;;;;;;3.72;2.85;;;;;;;22.10;nan;99168.63;5130628;28;20035;-57
2022/03/05 08:02:10;;;;;;;4.43;3.30;;;;;;;22.44;nan;99163.63;5130406;28;20112;-57
2022/03/05 08:04:36;;;;;;;3.80;2.65;;;;;;;23.03;nan;99169.00;5132491;27;20039;-58
2022/03/05 08:07:03;;;;;;;4.10;3.35;;;;;;;23.71;nan;99164.25;5133835;28;20096;-57
2022/03/05 08:09:28;;;;;;;3.20;2.38;;;;;;;24.38;nan;99166.16;5133659;28;20039;-57
2022/03/05 08:11:53;;;;;;;4.03;2.92;;;;;;;24.70;nan;99163.19;5133808;28;20088;-57
2022/03/05 08:14:19;;;;;;;4.40;3.28;;;;;;;24.38;nan;99168.94;5133805;28;20042;-57
2022/03/05 08:16:44;;;;;;;4.18;2.78;;;;;;;24.01;nan;99165.84;5133534;28;20039;-57
2022/03/05 08:19:10;;;;;;;4.13;3.05;;;;;;;23.66;nan;99167.47;5133879;28;20046;-57
2022/03/05 08:21:36;;;;;;;3.88;2.90;;;;;;;23.39;nan;99163.47;5133655;28;20050;-57
2022/03/05 08:24:02;;;;;;;4.00;3.00;;;;;;;23.17;nan;99165.44;5133732;28;20050;-57
2022/03/05 08:26:27;;;;;;;3.95;2.85;;;;;;;22.97;nan;99157.44;5133518;28;20047;-58
2022/03/05 08:28:53;;;;;;;4.28;3.30;;;;;;;22.87;nan;99171.38;5133298;28;20122;-57
2022/03/05 08:31:18;;;;;;;4.03;2.97;;;;;;;22.75;nan;99166.91;5133711;28;20035;-57
2022/03/05 08:33:44;;;;;;;4.32;3.30;;;;;;;22.68;nan;99164.09;5133590;28;20039;-57
2022/03/05 08:36:09;;;;;;;5.07;3.08;;;;;;;22.60;nan;99168.06;5133068;28;20050;-58
2022/03/05 08:38:36;;;;;;;4.72;3.03;;;;;;;22.52;nan;99165.25;5133290;28;20463;-57
2022/03/05 08:41:02;;;;;;;3.90;3.10;;;;;;;22.48;nan;99161.63;5133635;28;20059;-57
2022/03/05 08:43:28;;;;;;;4.03;3.15;;;;;;;22.42;nan;99157.63;5133454;28;20502;-57
2022/03/05 08:45:54;;;;;;;4.32;3.15;;;;;;;22.40;nan;99153.66;5133303;28;20054;-57
2022/03/05 08:48:19;;;;;;;4.60;3.40;;;;;;;22.37;nan;99149.66;5133340;28;20127;-57
2022/03/05 08:50:45;;;;;;;4.10;3.03;;;;;;;22.34;nan;99152.41;5133072;28;20130;-58
2022/03/05 08:53:10;;;;;;;4.32;3.25;;;;;;;22.33;nan;99148.84;5133032;28;20066;-58
2022/03/05 08:55:36;;;;;;;4.65;3.63;;;;;;;22.32;nan;99152.81;5133173;28;20050;-57
2022/03/05 08:58:01;;;;;;;4.15;3.28;;;;;;;22.30;nan;99148.84;5133193;28;20376;-58
2022/03/05 09:00:27;;;;;;;4.30;3.20;;;;;;;22.30;nan;99143.25;5133103;28;20474;-57
2022/03/05 09:02:53;;;;;;;4.95;3.47;;;;;;;22.30;nan;99146.84;5133279;28;20547;-57
2022/03/05 09:05:18;;;;;;;4.20;3.05;;;;;;;22.27;nan;99153.19;5133022;28;20045;-57
2022/03/05 09:07:44;;;;;;;4.70;3.50;;;;;;;22.27;nan;99139.25;5132920;28;20307;-57
2022/03/05 09:10:11;;;;;;;4.20;3.20;;;;;;;22.26;nan;99146.03;5133005;28;20035;-57
2022/03/05 09:12:36;;;;;;;4.70;3.20;;;;;;;22.25;nan;99141.66;5133155;28;20078;-57
2022/03/05 09:15:04;;;;;;;4.65;3.47;;;;;;;22.23;nan;99141.25;5132644;27;20120;-57
2022/03/05 09:17:30;;;;;;;5.28;3.45;;;;;;;22.25;nan;99141.66;5133089;28;20104;-57
2022/03/05 09:19:55;;;;;;;4.50;3.25;;;;;;;22.20;nan;99133.66;5132734;28;20445;-57
2022/03/05 09:22:21;;;;;;;4.38;3.47;;;;;;;22.21;nan;99141.59;5132813;28;20067;-57
2022/03/05 09:24:46;;;;;;;4.82;3.53;;;;;;;22.20;nan;99147.59;5132794;28;20043;-57
2022/03/05 09:27:12;;;;;;;4.38;3.13;;;;;;;22.20;nan;99130.88;5132631;28;20055;-57
2022/03/05 09:29:38;;;;;;;5.00;3.70;;;;;;;22.19;nan;99127.28;5132464;28;20560;-57
2022/03/05 09:32:04;;;;;;;4.75;3.30;;;;;;;22.17;nan;99123.31;5132567;28;20122;-57
2022/03/05 09:34:30;;;;;;;3.92;3.10;;;;;;;22.20;nan;99122.50;5132475;28;20043;-57
2022/03/05 09:36:55;;;;;;;4.95;3.72;;;;;;;22.15;nan;99115.34;5124280;28;20097;-57
2022/03/05 09:39:21;;;;;;;5.00;3.30;;;;;;;22.19;nan;99116.13;5112132;28;20046;-57
2022/03/05 09:41:47;;;;;;;4.20;3.35;;;;;;;22.16;nan;99108.56;5112045;28;20035;-58
2022/03/05 09:44:12;;;;;;;4.30;3.30;;;;;;;22.15;nan;99103.41;5111939;28;20044;-57
2022/03/05 09:46:38;;;;;;;4.85;3.30;;;;;;;22.16;nan;99111.38;5111847;28;20092;-57
2022/03/05 09:49:04;;;;;;;4.53;3.50;;;;;;;22.14;nan;99101.78;5111718;28;20058;-57
2022/03/05 09:51:31;;;;;;;4.57;3.45;;;;;;;22.17;nan;99106.59;5111781;28;20047;-57
2022/03/05 09:53:57;;;;;;;5.05;3.47;;;;;;;22.15;nan;99098.63;5111771;28;20503;-57
2022/03/05 09:56:23;;;;;;;4.43;3.17;;;;;;;22.14;nan;99099.00;5111768;28;20078;-57
2022/03/05 09:58:50;;;;;;;4.82;3.60;;;;;;;22.16;nan;99105.78;5111339;28;20046;-57
2022/03/05 10:01:17;;;;;;;4.72;3.30;;;;;;;22.15;nan;99101.41;5111748;28;20043;-57
2022/03/05 10:03:47;;;;;;;5.05;3.55;;;;;;;22.15;nan;99100.63;5111571;28;20415;-57
2022/03/05 10:06:16;;;;;;;5.13;3.40;;;;;;;22.14;nan;99097.00;5111512;28;20137;-57
2022/03/05 10:08:41;;;;;;;4.55;3.40;;;;;;;22.15;nan;99104.19;5092896;28;20083;-57
2022/03/05 10:11:09;;;;;;;4.20;3.08;;;;;;;22.12;nan;99102.19;5110877;28;20071;-57
2022/03/05 10:13:36;;;;;;;5.07;3.63;;;;;;;22.13;nan;99089.06;5111241;28;20044;-57
2022/03/05 10:16:04;;;;;;;5.03;3.55;;;;;;;22.13;nan;99091.84;5111214;28;20127;-57
2022/03/05 10:18:32;;;;;;;5.00;3.67;;;;;;;22.12;nan;99090.25;5110919;28;20051;-58
2022/03/05 10:21:03;;;;;;;4.22;3.22;;;;;;;22.12;nan;99088.25;5111074;28;20047;-57
2022/03/05 10:23:33;;;;;;;4.68;3.20;;;;;;;22.10;nan;99082.28;5111299;28;20503;-57
2022/03/05 10:26:01;;;;;;;4.70;3.45;;;;;;;22.11;nan;99085.88;5110403;28;20475;-59
2022/03/05 10:28:28;;;;;;;4.47;3.28;;;;;;;22.37;nan;99082.78;5110868;28;20082;-57
2022/03/05 10:31:02;;;;;;;4.50;3.35;;;;;;;23.02;nan;99084.53;5111099;28;20039;-57
2022/03/05 10:33:39;;;;;;;4.50;3.28;;;;;;;23.88;nan;99081.66;5111247;28;20622;-61
2022/03/05 10:36:25;;;;;;;4.57;3.20;;;;;;;24.49;nan;99079.41;5111034;28;20075;-62
2022/03/05 10:38:51;;;;;;;4.75;3.55;;;;;;;24.16;nan;99073.16;5110561;28;20069;-62
2022/03/05 10:41:19;;;;;;;4.53;3.45;;;;;;;23.78;nan;99074.88;5111054;28;20130;-62
2022/03/05 10:44:02;;;;;;;4.38;3.13;;;;;;;23.48;nan;99071.72;5110901;28;20028;-62
2022/03/05 10:46:58;;;;;;;4.57;3.25;;;;;;;23.18;nan;99064.59;5110843;28;20082;-62
2022/03/05 10:49:26;;;;;;;3.65;2.85;;;;;;;22.95;nan;99058.63;5109965;28;20035;-62
2022/03/05 10:52:07;;;;;;;4.40;3.30;;;;;;;22.80;nan;99061.38;5110756;28;20054;-62
2022/03/05 10:54:35;;;;;;;4.47;3.30;;;;;;;22.70;nan;99059.34;5110964;28;20043;-62
2022/03/05 10:57:14;;;;;;;5.13;3.35;;;;;;;22.59;nan;99058.56;5110633;28;20108;-62
2022/03/05 10:59:48;;;;;;;4.57;3.33;;;;;;;22.51;nan;99054.16;5110471;28;20450;-62
2022/03/05 11:02:16;;;;;;;4.18;3.03;;;;;;;22.47;nan;99054.13;5110668;28;20044;-62
2022/03/05 11:04:44;;;;;;;4.25;3.08;;;;;;;22.41;nan;99052.94;5110603;28;20062;-62
2022/03/05 11:07:12;;;;;;;4.65;3.38;;;;;;;22.36;nan;99053.34;5110312;28;20058;-62
2022/03/05 11:09:39;;;;;;;3.60;2.70;;;;;;;22.33;nan;99051.31;5110458;28;20045;-61
2022/03/05 11:12:09;;;;;;;4.18;3.15;;;;;;;22.31;nan;99058.47;5110990;28;20055;-62
2022/03/05 11:14:39;;;;;;;4.32;3.30;;;;;;;22.27;nan;99052.09;5110579;28;20126;-62
2022/03/05 11:17:05;;;;;;;4.25;3.10;;;;;;;22.24;nan;99042.53;5110426;28;20435;-62
2022/03/05 11:19:31;;;;;;;4.18;3.13;;;;;;;22.20;nan;99039.72;5110261;28;20035;-61
2022/03/05 11:21:57;;;;;;;4.28;3.10;;;;;;;22.22;nan;99042.16;5110400;28;20058;-62
2022/03/05 11:24:23;;;;;;;4.50;3.25;;;;;;;22.19;nan;99040.13;5110219;28;20066;-62
2022/03/05 11:26:50;;;;;;;4.32;3.20;;;;;;;22.15;nan;99029.00;5110250;28;20416;-62
2022/03/05 11:29:18;;;;;;;4.03;3.10;;;;;;;22.11;nan;99030.94;5110131;28;20047;-61
2022/03/05 11:31:44;;;;;;;3.88;2.85;;;;;;;22.11;nan;99030.94;5109911;28;20051;-62
2022/03/05 11:34:24;;;;;;;4.15;3.10;;;;;;;22.10;nan;99023.00;5110301;28;20044;-62
2022/03/05 11:36:51;;;;;;;4.40;3.10;;;;;;;22.09;nan;99021.41;5110198;28;20456;-62
2022/03/05 11:39:27;;;;;;;4.57;3.33;;;;;;;22.06;nan;99011.78;5109686;28;20087;-62
2022/03/05 11:42:05;;;;;;;4.13;2.85;;;;;;;22.01;nan;99006.63;5110236;28;20044;-62
2022/03/05 11:44:50;;;;;;;4.95;3.00;;;;;;;22.03;nan;98995.88;5110019;28;20400;-61
2022/03/05 11:47:18;;;;;;;4.65;3.28;;;;;;;22.05;nan;99001.06;5109720;28;20048;-62
2022/03/05 11:49:59;;;;;;;4.05;3.10;;;;;;;22.02;nan;98994.28;5109748;28;20050;-62
2022/03/05 11:52:39;;;;;;;4.53;3.30;;;;;;;22.00;nan;98991.09;5106434;28;20080;-62